sensor_id;sensor_type;location;lat;lon;timestamp;pressure;altitude;pressure_sealevel;temperature;humidity
42111;BME280;27766;52.174;5.456;2024-03-06T00:00:38;101703.72;;;6.81;100.00
42111;BME280;27766;52.174;5.456;2024-03-06T00:03:05;101712.25;;;6.80;100.00
42111;BME280;27766;52.174;5.456;2024-03-06T00:05:33;101706.00;;;6.75;100.00
42111;BME280;27766;52.174;5.456;2024-03-06T00:08:01;101710.19;;;6.73;100.00
42111;BME280;27766;52.174;5.456;2024-03-06T00:10:31;101723.22;;;6.76;100.00
42111;BME280;27766;52.174;5.456;2024-03-06T00:12:58;101720.63;;;6.76;100.00
42111;BME280;27766;52.174;5.456;2024-03-06T00:15:26;101717.09;;;6.74;100.00
42111;BME280;27766;52.174;5.456;2024-03-06T00:17:54;101722.47;;;6.78;100.00
42111;BME280;27766;52.174;5.456;2024-03-06T00:20:21;101730.25;;;6.80;100.00
42111;BME280;27766;52.174;5.456;2024-03-06T00:22:52;101724.16;;;6.78;100.00
42111;BME280;27766;52.174;5.456;2024-03-06T00:25:20;101732.75;;;6.78;100.00
42111;BME280;27766;52.174;5.456;2024-03-06T00:27:47;101733.50;;;6.76;100.00
42111;BME280;27766;52.174;5.456;2024-03-06T00:30:15;101731.78;;;6.76;100.00
42111;BME280;27766;52.174;5.456;2024-03-06T00:32:43;101732.91;;;6.81;100.00
42111;BME280;27766;52.174;5.456;2024-03-06T00:35:11;101732.75;;;6.78;100.00
42111;BME280;27766;52.174;5.456;2024-03-06T00:37:39;101730.13;;;6.77;100.00
42111;BME280;27766;52.174;5.456;2024-03-06T00:40:07;101733.41;;;6.74;100.00
42111;BME280;27766;52.174;5.456;2024-03-06T00:42:35;101742.19;;;6.78;100.00
42111;BME280;27766;52.174;5.456;2024-03-06T00:45:02;101734.25;;;6.73;100.00
42111;BME280;27766;52.174;5.456;2024-03-06T00:47:30;101751.56;;;6.77;100.00
42111;BME280;27766;52.174;5.456;2024-03-06T00:49:57;101749.91;;;6.78;100.00
42111;BME280;27766;52.174;5.456;2024-03-06T00:52:25;101744.00;;;6.80;100.00
42111;BME280;27766;52.174;5.456;2024-03-06T00:54:52;101735.03;;;6.72;100.00
42111;BME280;27766;52.174;5.456;2024-03-06T00:57:20;101745.41;;;6.74;100.00
42111;BME280;27766;52.174;5.456;2024-03-06T00:59:47;101755.06;;;6.78;100.00
42111;BME280;27766;52.174;5.456;2024-03-06T01:02:14;101756.78;;;6.79;100.00
42111;BME280;27766;52.174;5.456;2024-03-06T01:04:43;101756.16;;;6.83;100.00
42111;BME280;27766;52.174;5.456;2024-03-06T01:07:11;101755.34;;;6.84;100.00
42111;BME280;27766;52.174;5.456;2024-03-06T01:09:38;101755.34;;;6.84;100.00
42111;BME280;27766;52.174;5.456;2024-03-06T01:12:05;101757.81;;;6.82;100.00
42111;BME280;27766;52.174;5.456;2024-03-06T01:14:33;101763.69;;;6.80;100.00
42111;BME280;27766;52.174;5.456;2024-03-06T01:17:03;101759.22;;;6.76;100.00
42111;BME280;27766;52.174;5.456;2024-03-06T01:19:30;101766.16;;;6.77;100.00
42111;BME280;27766;52.174;5.456;2024-03-06T01:21:57;101772.97;;;6.76;100.00
42111;BME280;27766;52.174;5.456;2024-03-06T01:24:25;101764.28;;;6.74;100.00
42111;BME280;27766;52.174;5.456;2024-03-06T01:26:52;101773.06;;;6.78;100.00
42111;BME280;27766;52.174;5.456;2024-03-06T01:29:19;101772.09;;;6.76;100.00
42111;BME280;27766;52.174;5.456;2024-03-06T01:31:47;101771.94;;;6.73;100.00
42111;BME280;27766;52.174;5.456;2024-03-06T01:34:14;101770.97;;;6.71;100.00
42111;BME280;27766;52.174;5.456;2024-03-06T01:36:42;101785.47;;;6.69;100.00
42111;BME280;27766;52.174;5.456;2024-03-06T01:39:09;101785.59;;;6.72;100.00
42111;BME280;27766;52.174;5.456;2024-03-06T01:41:36;101788.28;;;6.73;100.00
42111;BME280;27766;52.174;5.456;2024-03-06T01:44:04;101794.97;;;6.70;100.00
42111;BME280;27766;52.174;5.456;2024-03-06T01:46:31;101794.88;;;6.68;100.00
42111;BME280;27766;52.174;5.456;2024-03-06T01:48:58;101791.56;;;6.71;100.00
42111;BME280;27766;52.174;5.456;2024-03-06T01:51:31;101793.25;;;6.70;100.00
42111;BME280;27766;52.174;5.456;2024-03-06T01:54:00;101793.03;;;6.65;100.00
42111;BME280;27766;52.174;5.456;2024-03-06T01:56:28;101790.38;;;6.64;100.00
42111;BME280;27766;52.174;5.456;2024-03-06T01:58:56;101789.81;;;6.70;100.00
42111;BME280;27766;52.174;5.456;2024-03-06T02:01:24;101792.38;;;6.70;100.00
42111;BME280;27766;52.174;5.456;2024-03-06T02:03:52;101783.53;;;6.64;100.00
42111;BME280;27766;52.174;5.456;2024-03-06T02:06:20;101787.88;;;6.65;100.00
42111;BME280;27766;52.174;5.456;2024-03-06T02:08:48;101798.16;;;6.65;100.00
42111;BME280;27766;52.174;5.456;2024-03-06T02:11:16;101788.56;;;6.61;100.00
42111;BME280;27766;52.174;5.456;2024-03-06T02:13:44;101795.31;;;6.59;100.00
42111;BME280;27766;52.174;5.456;2024-03-06T02:16:11;101784.84;;;6.56;100.00
42111;BME280;27766;52.174;5.456;2024-03-06T02:18:51;101788.03;;;6.51;100.00
42111;BME280;27766;52.174;5.456;2024-03-06T02:21:21;101799.84;;;6.47;100.00
42111;BME280;27766;52.174;5.456;2024-03-06T02:23:51;101801.59;;;6.48;100.00
42111;BME280;27766;52.174;5.456;2024-03-06T02:26:19;101797.78;;;6.40;100.00
42111;BME280;27766;52.174;5.456;2024-03-06T02:28:52;101805.56;;;6.41;100.00
42111;BME280;27766;52.174;5.456;2024-03-06T02:31:20;101800.19;;;6.37;100.00
42111;BME280;27766;52.174;5.456;2024-03-06T02:33:49;101791.34;;;6.31;100.00
42111;BME280;27766;52.174;5.456;2024-03-06T02:36:18;101800.69;;;6.29;100.00
42111;BME280;27766;52.174;5.456;2024-03-06T02:38:45;101800.50;;;6.26;100.00
42111;BME280;27766;52.174;5.456;2024-03-06T02:41:13;101804.59;;;6.23;100.00
42111;BME280;27766;52.174;5.456;2024-03-06T02:43:43;101809.69;;;6.21;100.00
42111;BME280;27766;52.174;5.456;2024-03-06T02:46:10;101804.38;;;6.18;100.00
42111;BME280;27766;52.174;5.456;2024-03-06T02:48:37;101798.13;;;6.13;100.00
42111;BME280;27766;52.174;5.456;2024-03-06T02:51:04;101807.28;;;6.08;100.00
42111;BME280;27766;52.174;5.456;2024-03-06T02:53:32;101805.59;;;6.08;100.00
42111;BME280;27766;52.174;5.456;2024-03-06T02:55:59;101796.84;;;6.05;100.00
42111;BME280;27766;52.174;5.456;2024-03-06T02:58:26;101798.53;;;6.04;100.00
42111;BME280;27766;52.174;5.456;2024-03-06T03:00:57;101800.31;;;6.05;100.00
42111;BME280;27766;52.174;5.456;2024-03-06T03:03:24;101808.81;;;6.04;100.00
42111;BME280;27766;52.174;5.456;2024-03-06T03:05:52;101803.31;;;5.98;100.00
42111;BME280;27766;52.174;5.456;2024-03-06T03:08:19;101802.25;;;5.94;100.00
42111;BME280;27766;52.174;5.456;2024-03-06T03:10:47;101809.91;;;5.93;100.00
42111;BME280;27766;52.174;5.456;2024-03-06T03:13:15;101806.13;;;5.86;100.00
42111;BME280;27766;52.174;5.456;2024-03-06T03:15:42;101818.09;;;5.85;100.00
42111;BME280;27766;52.174;5.456;2024-03-06T03:18:09;101804.66;;;5.75;100.00
42111;BME280;27766;52.174;5.456;2024-03-06T03:20:37;101809.75;;;5.73;100.00
42111;BME280;27766;52.174;5.456;2024-03-06T03:23:04;101814.88;;;5.73;100.00
42111;BME280;27766;52.174;5.456;2024-03-06T03:25:33;101813.97;;;5.73;100.00
42111;BME280;27766;52.174;5.456;2024-03-06T03:28:00;101822.41;;;5.70;100.00
42111;BME280;27766;52.174;5.456;2024-03-06T03:30:27;101819.69;;;5.67;100.00
42111;BME280;27766;52.174;5.456;2024-03-06T03:32:55;101814.56;;;5.67;100.00
42111;BME280;27766;52.174;5.456;2024-03-06T03:35:22;101809.16;;;5.62;100.00
42111;BME280;27766;52.174;5.456;2024-03-06T03:37:52;101812.59;;;5.63;100.00
42111;BME280;27766;52.174;5.456;2024-03-06T03:40:19;101818.28;;;5.57;100.00
42111;BME280;27766;52.174;5.456;2024-03-06T03:42:47;101815.72;;;5.57;100.00
42111;BME280;27766;52.174;5.456;2024-03-06T03:45:15;101823.09;;;5.51;100.00
42111;BME280;27766;52.174;5.456;2024-03-06T03:47:42;101827.09;;;5.46;100.00
42111;BME280;27766;52.174;5.456;2024-03-06T03:50:09;101820.03;;;5.42;100.00
42111;BME280;27766;52.174;5.456;2024-03-06T03:52:38;101812.97;;;5.37;100.00
42111;BME280;27766;52.174;5.456;2024-03-06T03:55:09;101823.75;;;5.47;100.00
42111;BME280;27766;52.174;5.456;2024-03-06T03:57:36;101821.72;;;5.41;100.00
42111;BME280;27766;52.174;5.456;2024-03-06T04:00:04;101822.69;;;5.43;100.00
42111;BME280;27766;52.174;5.456;2024-03-06T04:02:38;101827.00;;;5.44;100.00
42111;BME280;27766;52.174;5.456;2024-03-06T04:05:06;101826.06;;;5.42;100.00
42111;BME280;27766;52.174;5.456;2024-03-06T04:07:33;101830.47;;;5.45;100.00
42111;BME280;27766;52.174;5.456;2024-03-06T04:10:01;101825.34;;;5.45;100.00
42111;BME280;27766;52.174;5.456;2024-03-06T04:12:28;101836.22;;;5.41;100.00
42111;BME280;27766;52.174;5.456;2024-03-06T04:14:56;101822.50;;;5.40;100.00
42111;BME280;27766;52.174;5.456;2024-03-06T04:17:23;101827.56;;;5.38;100.00
42111;BME280;27766;52.174;5.456;2024-03-06T04:19:52;101828.38;;;5.37;100.00
42111;BME280;27766;52.174;5.456;2024-03-06T04:22:20;101828.97;;;5.33;100.00
42111;BME280;27766;52.174;5.456;2024-03-06T04:24:47;101828.03;;;5.31;100.00
42111;BME280;27766;52.174;5.456;2024-03-06T04:27:14;101830.34;;;5.27;100.00
42111;BME280;27766;52.174;5.456;2024-03-06T04:29:43;101843.25;;;5.28;100.00
42111;BME280;27766;52.174;5.456;2024-03-06T04:32:10;101838.84;;;5.26;100.00
42111;BME280;27766;52.174;5.456;2024-03-06T04:34:37;101842.91;;;5.22;100.00
42111;BME280;27766;52.174;5.456;2024-03-06T04:37:05;101847.78;;;5.17;100.00
42111;BME280;27766;52.174;5.456;2024-03-06T04:39:32;101840.63;;;5.12;100.00
42111;BME280;27766;52.174;5.456;2024-03-06T04:42:00;101849.13;;;5.11;100.00
42111;BME280;27766;52.174;5.456;2024-03-06T04:44:27;101851.41;;;5.06;100.00
42111;BME280;27766;52.174;5.456;2024-03-06T04:46:55;101859.03;;;5.04;100.00
42111;BME280;27766;52.174;5.456;2024-03-06T04:49:23;101865.75;;;5.02;100.00
42111;BME280;27766;52.174;5.456;2024-03-06T04:51:50;101867.38;;;5.00;100.00
42111;BME280;27766;52.174;5.456;2024-03-06T04:54:17;101869.84;;;4.99;100.00
42111;BME280;27766;52.174;5.456;2024-03-06T04:56:45;101871.25;;;4.94;100.00
42111;BME280;27766;52.174;5.456;2024-03-06T04:59:12;101868.44;;;4.89;100.00
42111;BME280;27766;52.174;5.456;2024-03-06T05:01:39;101872.50;;;4.85;100.00
42111;BME280;27766;52.174;5.456;2024-03-06T05:04:06;101867.44;;;4.87;100.00
42111;BME280;27766;52.174;5.456;2024-03-06T05:06:51;101855.69;;;4.75;100.00
42111;BME280;27766;52.174;5.456;2024-03-06T05:09:35;101875.22;;;4.73;100.00
42111;BME280;27766;52.174;5.456;2024-03-06T05:12:20;101870.38;;;4.63;100.00
42111;BME280;27766;52.174;5.456;2024-03-06T05:15:05;101879.03;;;4.65;100.00
42111;BME280;27766;52.174;5.456;2024-03-06T05:17:50;101877.44;;;4.67;100.00
42111;BME280;27766;52.174;5.456;2024-03-06T05:20:35;101886.13;;;4.69;100.00
42111;BME280;27766;52.174;5.456;2024-03-06T05:23:20;101893.69;;;4.68;100.00
42111;BME280;27766;52.174;5.456;2024-03-06T05:26:04;101890.91;;;4.63;100.00
42111;BME280;27766;52.174;5.456;2024-03-06T05:28:49;101911.41;;;4.63;100.00
42111;BME280;27766;52.174;5.456;2024-03-06T05:31:34;101909.09;;;4.53;100.00
42111;BME280;27766;52.174;5.456;2024-03-06T05:34:19;101911.16;;;4.45;100.00
42111;BME280;27766;52.174;5.456;2024-03-06T05:37:05;101914.56;;;4.44;100.00
42111;BME280;27766;52.174;5.456;2024-03-06T05:39:50;101913.28;;;4.37;100.00
42111;BME280;27766;52.174;5.456;2024-03-06T05:42:35;101911.50;;;4.36;100.00
42111;BME280;27766;52.174;5.456;2024-03-06T05:45:20;101918.34;;;4.36;100.00
42111;BME280;27766;52.174;5.456;2024-03-06T05:48:04;101909.38;;;4.29;100.00
42111;BME280;27766;52.174;5.456;2024-03-06T05:50:50;101921.41;;;4.30;100.00
42111;BME280;27766;52.174;5.456;2024-03-06T05:53:38;101929.88;;;4.29;100.00
42111;BME280;27766;52.174;5.456;2024-03-06T05:56:23;101921.97;;;4.26;100.00
42111;BME280;27766;52.174;5.456;2024-03-06T05:59:08;101934.81;;;4.26;100.00
42111;BME280;27766;52.174;5.456;2024-03-06T06:01:35;101936.91;;;4.18;100.00
42111;BME280;27766;52.174;5.456;2024-03-06T06:04:03;101944.31;;;4.14;100.00
42111;BME280;27766;52.174;5.456;2024-03-06T06:06:34;101928.47;;;4.06;100.00
42111;BME280;27766;52.174;5.456;2024-03-06T06:09:02;101953.06;;;4.17;100.00
42111;BME280;27766;52.174;5.456;2024-03-06T06:11:33;101953.94;;;4.18;100.00
42111;BME280;27766;52.174;5.456;2024-03-06T06:14:00;101954.63;;;4.15;100.00
42111;BME280;27766;52.174;5.456;2024-03-06T06:16:35;101962.88;;;4.09;100.00
42111;BME280;27766;52.174;5.456;2024-03-06T06:19:02;101964.53;;;4.09;100.00
42111;BME280;27766;52.174;5.456;2024-03-06T06:21:30;101970.34;;;4.06;100.00
42111;BME280;27766;52.174;5.456;2024-03-06T06:23:57;101963.63;;;3.95;100.00
42111;BME280;27766;52.174;5.456;2024-03-06T06:26:24;101969.25;;;4.03;100.00
42111;BME280;27766;52.174;5.456;2024-03-06T06:28:51;101979.31;;;4.00;100.00
42111;BME280;27766;52.174;5.456;2024-03-06T06:31:19;101983.34;;;3.96;100.00
42111;BME280;27766;52.174;5.456;2024-03-06T06:33:49;101985.03;;;3.95;100.00
42111;BME280;27766;52.174;5.456;2024-03-06T06:36:19;101993.50;;;3.94;100.00
42111;BME280;27766;52.174;5.456;2024-03-06T06:38:47;101997.94;;;3.97;100.00
42111;BME280;27766;52.174;5.456;2024-03-06T06:41:17;101996.06;;;3.94;100.00
42111;BME280;27766;52.174;5.456;2024-03-06T06:43:45;102001.50;;;3.99;100.00
42111;BME280;27766;52.174;5.456;2024-03-06T06:46:13;102001.50;;;3.99;100.00
42111;BME280;27766;52.174;5.456;2024-03-06T06:48:40;102000.41;;;3.95;100.00
42111;BME280;27766;52.174;5.456;2024-03-06T06:51:07;102016.38;;;4.05;100.00
42111;BME280;27766;52.174;5.456;2024-03-06T06:53:35;102012.03;;;4.04;100.00
42111;BME280;27766;52.174;5.456;2024-03-06T06:56:03;102020.81;;;4.07;100.00
42111;BME280;27766;52.174;5.456;2024-03-06T06:58:30;102013.81;;;4.05;100.00
42111;BME280;27766;52.174;5.456;2024-03-06T07:00:58;102026.00;;;4.09;100.00
42111;BME280;27766;52.174;5.456;2024-03-06T07:03:25;102028.00;;;4.13;100.00
42111;BME280;27766;52.174;5.456;2024-03-06T07:05:57;102022.88;;;4.13;100.00
42111;BME280;27766;52.174;5.456;2024-03-06T07:08:24;102027.47;;;4.19;100.00
42111;BME280;27766;52.174;5.456;2024-03-06T07:10:52;102043.25;;;4.25;100.00
42111;BME280;27766;52.174;5.456;2024-03-06T07:13:22;102047.88;;;4.31;100.00
42111;BME280;27766;52.174;5.456;2024-03-06T07:15:49;102046.00;;;4.28;100.00
42111;BME280;27766;52.174;5.456;2024-03-06T07:18:18;102041.09;;;4.31;100.00
42111;BME280;27766;52.174;5.456;2024-03-06T07:20:45;102040.38;;;4.34;100.00
42111;BME280;27766;52.174;5.456;2024-03-06T07:23:12;102045.22;;;4.29;100.00
42111;BME280;27766;52.174;5.456;2024-03-06T07:25:40;102057.06;;;4.40;100.00
42111;BME280;27766;52.174;5.456;2024-03-06T07:28:07;102062.19;;;4.40;100.00
42111;BME280;27766;52.174;5.456;2024-03-06T07:30:34;102065.69;;;4.42;100.00
42111;BME280;27766;52.174;5.456;2024-03-06T07:33:02;102068.38;;;4.44;100.00
42111;BME280;27766;52.174;5.456;2024-03-06T07:35:29;102065.00;;;4.45;100.00
42111;BME280;27766;52.174;5.456;2024-03-06T07:37:57;102065.31;;;4.36;100.00
42111;BME280;27766;52.174;5.456;2024-03-06T07:40:24;102072.44;;;4.40;100.00
42111;BME280;27766;52.174;5.456;2024-03-06T07:42:52;102070.25;;;4.20;100.00
42111;BME280;27766;52.174;5.456;2024-03-06T07:45:19;102074.72;;;3.95;100.00
42111;BME280;27766;52.174;5.456;2024-03-06T07:47:48;102082.09;;;4.04;100.00
42111;BME280;27766;52.174;5.456;2024-03-06T07:50:16;102083.00;;;4.05;100.00
42111;BME280;27766;52.174;5.456;2024-03-06T07:52:48;102083.97;;;4.07;100.00
42111;BME280;27766;52.174;5.456;2024-03-06T07:55:16;102083.84;;;4.19;100.00
42111;BME280;27766;52.174;5.456;2024-03-06T07:57:46;102094.53;;;4.25;100.00
42111;BME280;27766;52.174;5.456;2024-03-06T08:00:14;102093.53;;;4.23;100.00
42111;BME280;27766;52.174;5.456;2024-03-06T08:02:41;102098.06;;;4.27;100.00
42111;BME280;27766;52.174;5.456;2024-03-06T08:05:11;102103.78;;;4.36;100.00
42111;BME280;27766;52.174;5.456;2024-03-06T08:07:41;102104.16;;;4.42;100.00
42111;BME280;27766;52.174;5.456;2024-03-06T08:10:09;102103.75;;;4.50;100.00
42111;BME280;27766;52.174;5.456;2024-03-06T08:12:41;102101.78;;;4.59;100.00
42111;BME280;27766;52.174;5.456;2024-03-06T08:15:11;102106.13;;;4.60;100.00
42111;BME280;27766;52.174;5.456;2024-03-06T08:17:41;102108.97;;;4.65;100.00
42111;BME280;27766;52.174;5.456;2024-03-06T08:20:09;102110.34;;;4.73;100.00
42111;BME280;27766;52.174;5.456;2024-03-06T08:22:39;102111.13;;;4.72;100.00
42111;BME280;27766;52.174;5.456;2024-03-06T08:25:12;102107.28;;;4.79;100.00
42111;BME280;27766;52.174;5.456;2024-03-06T08:27:40;102117.78;;;4.83;100.00
42111;BME280;27766;52.174;5.456;2024-03-06T08:30:08;102107.66;;;4.85;100.00
42111;BME280;27766;52.174;5.456;2024-03-06T08:32:36;102122.00;;;4.96;100.00
42111;BME280;27766;52.174;5.456;2024-03-06T08:35:07;102120.88;;;5.06;100.00
42111;BME280;27766;52.174;5.456;2024-03-06T08:37:39;102132.91;;;5.20;100.00
42111;BME280;27766;52.174;5.456;2024-03-06T08:40:08;102122.63;;;5.20;100.00
42111;BME280;27766;52.174;5.456;2024-03-06T08:42:42;102134.34;;;5.30;100.00
42111;BME280;27766;52.174;5.456;2024-03-06T08:45:11;102121.38;;;5.14;100.00
42111;BME280;27766;52.174;5.456;2024-03-06T08:47:38;102132.19;;;5.23;100.00
42111;BME280;27766;52.174;5.456;2024-03-06T08:50:07;102138.50;;;5.28;100.00
42111;BME280;27766;52.174;5.456;2024-03-06T08:52:36;102142.31;;;5.35;100.00
42111;BME280;27766;52.174;5.456;2024-03-06T08:55:04;102138.97;;;5.36;100.00
42111;BME280;27766;52.174;5.456;2024-03-06T08:57:31;102150.19;;;5.38;100.00
42111;BME280;27766;52.174;5.456;2024-03-06T08:59:59;102158.97;;;5.42;100.00
42111;BME280;27766;52.174;5.456;2024-03-06T09:02:26;102144.25;;;5.39;100.00
42111;BME280;27766;52.174;5.456;2024-03-06T09:04:54;102157.94;;;5.53;100.00
42111;BME280;27766;52.174;5.456;2024-03-06T09:07:21;102164.06;;;5.55;100.00
42111;BME280;27766;52.174;5.456;2024-03-06T09:09:52;102159.38;;;5.63;100.00
42111;BME280;27766;52.174;5.456;2024-03-06T09:12:20;102174.69;;;5.61;100.00
42111;BME280;27766;52.174;5.456;2024-03-06T09:14:47;102166.84;;;5.73;100.00
42111;BME280;27766;52.174;5.456;2024-03-06T09:17:15;102166.91;;;5.75;100.00
42111;BME280;27766;52.174;5.456;2024-03-06T09:19:42;102169.84;;;5.81;100.00
42111;BME280;27766;52.174;5.456;2024-03-06T09:22:30;102177.78;;;5.99;100.00
42111;BME280;27766;52.174;5.456;2024-03-06T09:24:57;102182.78;;;5.97;100.00
42111;BME280;27766;52.174;5.456;2024-03-06T09:27:24;102183.53;;;6.10;100.00
42111;BME280;27766;52.174;5.456;2024-03-06T09:29:52;102185.25;;;6.24;100.00
42111;BME280;27766;52.174;5.456;2024-03-06T09:32:19;102184.34;;;6.39;100.00
42111;BME280;27766;52.174;5.456;2024-03-06T09:34:49;102194.78;;;6.57;100.00
42111;BME280;27766;52.174;5.456;2024-03-06T09:37:18;102195.09;;;6.63;100.00
42111;BME280;27766;52.174;5.456;2024-03-06T09:39:46;102190.50;;;6.57;100.00
42111;BME280;27766;52.174;5.456;2024-03-06T09:42:15;102198.03;;;6.69;100.00
42111;BME280;27766;52.174;5.456;2024-03-06T09:44:43;102199.47;;;6.64;100.00
42111;BME280;27766;52.174;5.456;2024-03-06T09:47:13;102206.88;;;6.74;100.00
42111;BME280;27766;52.174;5.456;2024-03-06T09:49:42;102217.16;;;6.74;100.00
42111;BME280;27766;52.174;5.456;2024-03-06T09:52:10;102219.13;;;6.78;100.00
42111;BME280;27766;52.174;5.456;2024-03-06T09:54:38;102222.50;;;6.77;100.00
42111;BME280;27766;52.174;5.456;2024-03-06T09:57:06;102220.38;;;6.85;100.00
42111;BME280;27766;52.174;5.456;2024-03-06T09:59:33;102224.06;;;6.90;100.00
42111;BME280;27766;52.174;5.456;2024-03-06T10:02:07;102223.41;;;6.94;100.00
42111;BME280;27766;52.174;5.456;2024-03-06T10:04:46;102231.31;;;6.97;100.00
42111;BME280;27766;52.174;5.456;2024-03-06T10:07:14;102235.88;;;7.18;100.00
42111;BME280;27766;52.174;5.456;2024-03-06T10:09:41;102231.28;;;7.29;100.00
42111;BME280;27766;52.174;5.456;2024-03-06T10:12:12;102240.66;;;7.27;100.00
42111;BME280;27766;52.174;5.456;2024-03-06T10:14:48;102230.75;;;7.35;100.00
42111;BME280;27766;52.174;5.456;2024-03-06T10:17:21;102240.81;;;7.47;100.00
42111;BME280;27766;52.174;5.456;2024-03-06T10:19:55;102239.47;;;7.53;100.00
42111;BME280;27766;52.174;5.456;2024-03-06T10:22:22;102234.88;;;7.64;100.00
42111;BME280;27766;52.174;5.456;2024-03-06T10:24:55;102235.97;;;7.69;100.00
42111;BME280;27766;52.174;5.456;2024-03-06T10:27:23;102235.25;;;7.72;100.00
42111;BME280;27766;52.174;5.456;2024-03-06T10:30:04;102231.06;;;7.74;100.00
42111;BME280;27766;52.174;5.456;2024-03-06T10:32:32;102236.47;;;7.79;100.00
42111;BME280;27766;52.174;5.456;2024-03-06T10:35:00;102237.50;;;7.82;100.00
42111;BME280;27766;52.174;5.456;2024-03-06T10:37:29;102242.59;;;7.81;100.00
42111;BME280;27766;52.174;5.456;2024-03-06T10:39:58;102247.31;;;7.89;100.00
42111;BME280;27766;52.174;5.456;2024-03-06T10:42:28;102242.25;;;7.91;100.00
42111;BME280;27766;52.174;5.456;2024-03-06T10:44:58;102255.53;;;7.99;100.00
42111;BME280;27766;52.174;5.456;2024-03-06T10:47:27;102251.81;;;7.93;100.00
42111;BME280;27766;52.174;5.456;2024-03-06T10:49:59;102255.38;;;7.96;100.00
42111;BME280;27766;52.174;5.456;2024-03-06T10:52:27;102250.47;;;8.00;100.00
42111;BME280;27766;52.174;5.456;2024-03-06T10:54:58;102246.41;;;8.05;100.00
42111;BME280;27766;52.174;5.456;2024-03-06T10:57:26;102253.16;;;8.20;100.00
42111;BME280;27766;52.174;5.456;2024-03-06T10:59:54;102252.50;;;8.24;100.00
42111;BME280;27766;52.174;5.456;2024-03-06T11:02:23;102257.41;;;8.36;100.00
42111;BME280;27766;52.174;5.456;2024-03-06T11:04:51;102252.69;;;8.45;100.00
42111;BME280;27766;52.174;5.456;2024-03-06T11:07:20;102257.06;;;8.46;100.00
42111;BME280;27766;52.174;5.456;2024-03-06T11:09:48;102261.00;;;8.56;100.00
42111;BME280;27766;52.174;5.456;2024-03-06T11:12:42;102265.59;;;8.62;100.00
42111;BME280;27766;52.174;5.456;2024-03-06T11:15:16;102267.84;;;8.55;100.00
42111;BME280;27766;52.174;5.456;2024-03-06T11:17:48;102265.47;;;8.60;100.00
42111;BME280;27766;52.174;5.456;2024-03-06T11:20:18;102264.75;;;8.63;100.00
42111;BME280;27766;52.174;5.456;2024-03-06T11:28:20;102267.78;;;8.72;100.00
42111;BME280;27766;52.174;5.456;2024-03-06T11:33:21;102264.31;;;8.90;100.00
42111;BME280;27766;52.174;5.456;2024-03-06T11:36:14;102270.69;;;8.96;100.00
42111;BME280;27766;52.174;5.456;2024-03-06T11:38:47;102272.63;;;9.02;100.00
42111;BME280;27766;52.174;5.456;2024-03-06T11:41:15;102273.38;;;8.99;100.00
42111;BME280;27766;52.174;5.456;2024-03-06T11:43:43;102267.34;;;8.99;100.00
42111;BME280;27766;52.174;5.456;2024-03-06T11:46:11;102262.09;;;8.97;100.00
42111;BME280;27766;52.174;5.456;2024-03-06T11:48:38;102271.09;;;9.06;100.00
42111;BME280;27766;52.174;5.456;2024-03-06T11:51:06;102264.75;;;9.17;100.00
42111;BME280;27766;52.174;5.456;2024-03-06T11:53:34;102274.75;;;9.29;100.00
42111;BME280;27766;52.174;5.456;2024-03-06T11:56:06;102282.94;;;9.38;100.00
42111;BME280;27766;52.174;5.456;2024-03-06T11:58:34;102282.94;;;9.38;100.00
42111;BME280;27766;52.174;5.456;2024-03-06T12:01:01;102287.56;;;9.45;100.00
42111;BME280;27766;52.174;5.456;2024-03-06T12:03:29;102280.84;;;9.49;100.00
42111;BME280;27766;52.174;5.456;2024-03-06T12:05:57;102290.56;;;9.55;100.00
42111;BME280;27766;52.174;5.456;2024-03-06T12:08:26;102287.16;;;9.56;100.00
42111;BME280;27766;52.174;5.456;2024-03-06T12:10:53;102279.97;;;9.68;100.00
42111;BME280;27766;52.174;5.456;2024-03-06T12:13:22;102279.16;;;9.69;100.00
42111;BME280;27766;52.174;5.456;2024-03-06T12:15:51;102282.94;;;9.77;100.00
42111;BME280;27766;52.174;5.456;2024-03-06T12:18:20;102287.94;;;9.73;100.00
42111;BME280;27766;52.174;5.456;2024-03-06T12:20:50;102283.25;;;9.84;100.00
42111;BME280;27766;52.174;5.456;2024-03-06T12:23:22;102291.13;;;9.87;100.00
42111;BME280;27766;52.174;5.456;2024-03-06T12:26:08;102282.75;;;9.92;100.00
42111;BME280;27766;52.174;5.456;2024-03-06T12:28:39;102282.16;;;9.98;100.00
42111;BME280;27766;52.174;5.456;2024-03-06T12:31:06;102284.19;;;10.05;100.00
42111;BME280;27766;52.174;5.456;2024-03-06T12:33:35;102289.34;;;10.05;100.00
42111;BME280;27766;52.174;5.456;2024-03-06T12:36:04;102286.25;;;10.14;100.00
42111;BME280;27766;52.174;5.456;2024-03-06T12:38:33;102277.88;;;10.20;100.00
42111;BME280;27766;52.174;5.456;2024-03-06T12:41:00;102289.44;;;10.28;100.00
42111;BME280;27766;52.174;5.456;2024-03-06T12:43:28;102282.69;;;10.32;100.00
42111;BME280;27766;52.174;5.456;2024-03-06T12:45:56;102278.06;;;10.44;100.00
42111;BME280;27766;52.174;5.456;2024-03-06T12:48:25;102280.78;;;10.47;100.00
42111;BME280;27766;52.174;5.456;2024-03-06T12:50:55;102284.13;;;10.44;100.00
42111;BME280;27766;52.174;5.456;2024-03-06T12:53:23;102281.78;;;10.51;100.00
42111;BME280;27766;52.174;5.456;2024-03-06T12:55:50;102281.59;;;10.46;100.00
42111;BME280;27766;52.174;5.456;2024-03-06T12:58:18;102285.19;;;10.50;100.00
42111;BME280;27766;52.174;5.456;2024-03-06T13:00:46;102283.47;;;10.50;100.00
42111;BME280;27766;52.174;5.456;2024-03-06T13:03:14;102278.97;;;10.44;100.00
42111;BME280;27766;52.174;5.456;2024-03-06T13:05:41;102270.22;;;10.42;100.00
42111;BME280;27766;52.174;5.456;2024-03-06T13:08:08;102280.72;;;10.45;100.00
42111;BME280;27766;52.174;5.456;2024-03-06T13:10:36;102279.22;;;10.51;100.00